sensor_id;sensor_type;location;lat;lon;timestamp;P1;durP1;ratioP1;P2;durP2;ratioP2
27558;SDS011;15002;52.028;5.670;2024-03-08T00:02:16;43.03;;;20.65;;
27558;SDS011;15002;52.028;5.670;2024-03-08T00:04:42;42.53;;;21.83;;
27558;SDS011;15002;52.028;5.670;2024-03-08T00:07:07;44.28;;;21.58;;
27558;SDS011;15002;52.028;5.670;2024-03-08T00:09:33;41.17;;;21.23;;
27558;SDS011;15002;52.028;5.670;2024-03-08T00:11:58;38.75;;;21.73;;
27558;SDS011;15002;52.028;5.670;2024-03-08T00:14:24;42.33;;;20.58;;
27558;SDS011;15002;52.028;5.670;2024-03-08T00:16:50;40.67;;;20.58;;
27558;SDS011;15002;52.028;5.670;2024-03-08T00:19:17;42.35;;;19.63;;
27558;SDS011;15002;52.028;5.670;2024-03-08T00:21:43;40.72;;;21.35;;
27558;SDS011;15002;52.028;5.670;2024-03-08T00:24:09;35.72;;;19.77;;
27558;SDS011;15002;52.028;5.670;2024-03-08T00:26:34;47.00;;;21.65;;
27558;SDS011;15002;52.028;5.670;2024-03-08T00:29:00;42.15;;;20.70;;
27558;SDS011;15002;52.028;5.670;2024-03-08T00:31:26;34.58;;;19.38;;
27558;SDS011;15002;52.028;5.670;2024-03-08T00:33:51;43.58;;;20.65;;
27558;SDS011;15002;52.028;5.670;2024-03-08T00:36:17;40.28;;;22.20;;
27558;SDS011;15002;52.028;5.670;2024-03-08T00:38:43;46.08;;;21.77;;
27558;SDS011;15002;52.028;5.670;2024-03-08T00:41:09;40.03;;;20.75;;
27558;SDS011;15002;52.028;5.670;2024-03-08T00:43:34;40.97;;;21.27;;
27558;SDS011;15002;52.028;5.670;2024-03-08T00:46:00;39.55;;;20.77;;
27558;SDS011;15002;52.028;5.670;2024-03-08T00:48:26;40.38;;;21.13;;
27558;SDS011;15002;52.028;5.670;2024-03-08T00:50:52;40.22;;;20.80;;
27558;SDS011;15002;52.028;5.670;2024-03-08T00:53:18;43.95;;;21.30;;
27558;SDS011;15002;52.028;5.670;2024-03-08T00:55:44;41.10;;;20.05;;
27558;SDS011;15002;52.028;5.670;2024-03-08T00:58:11;44.05;;;21.30;;
27558;SDS011;15002;52.028;5.670;2024-03-08T01:00:37;41.70;;;19.27;;
27558;SDS011;15002;52.028;5.670;2024-03-08T01:03:04;39.03;;;19.95;;
27558;SDS011;15002;52.028;5.670;2024-03-08T01:05:30;41.17;;;21.80;;
27558;SDS011;15002;52.028;5.670;2024-03-08T01:07:55;42.17;;;21.15;;
27558;SDS011;15002;52.028;5.670;2024-03-08T01:10:21;41.88;;;21.23;;
27558;SDS011;15002;52.028;5.670;2024-03-08T01:12:48;42.92;;;22.00;;
27558;SDS011;15002;52.028;5.670;2024-03-08T01:15:14;43.20;;;22.17;;
27558;SDS011;15002;52.028;5.670;2024-03-08T01:17:41;40.83;;;20.58;;
27558;SDS011;15002;52.028;5.670;2024-03-08T01:20:08;35.00;;;18.30;;
27558;SDS011;15002;52.028;5.670;2024-03-08T01:22:37;40.13;;;20.70;;
27558;SDS011;15002;52.028;5.670;2024-03-08T01:25:03;45.40;;;21.05;;
27558;SDS011;15002;52.028;5.670;2024-03-08T01:27:30;41.45;;;19.30;;
27558;SDS011;15002;52.028;5.670;2024-03-08T01:29:56;45.28;;;21.75;;
27558;SDS011;15002;52.028;5.670;2024-03-08T01:32:22;42.30;;;20.42;;
27558;SDS011;15002;52.028;5.670;2024-03-08T01:34:48;43.85;;;21.05;;
27558;SDS011;15002;52.028;5.670;2024-03-08T01:37:14;41.55;;;19.67;;
27558;SDS011;15002;52.028;5.670;2024-03-08T01:39:40;43.92;;;22.40;;
27558;SDS011;15002;52.028;5.670;2024-03-08T01:42:05;43.25;;;21.33;;
27558;SDS011;15002;52.028;5.670;2024-03-08T01:44:31;41.05;;;21.27;;
27558;SDS011;15002;52.028;5.670;2024-03-08T01:46:57;42.13;;;21.77;;
27558;SDS011;15002;52.028;5.670;2024-03-08T01:49:23;42.85;;;21.23;;
27558;SDS011;15002;52.028;5.670;2024-03-08T01:51:51;45.55;;;21.33;;
27558;SDS011;15002;52.028;5.670;2024-03-08T01:54:17;42.22;;;21.35;;
27558;SDS011;15002;52.028;5.670;2024-03-08T01:56:44;43.22;;;20.90;;
27558;SDS011;15002;52.028;5.670;2024-03-08T01:59:11;43.80;;;22.77;;
27558;SDS011;15002;52.028;5.670;2024-03-08T02:01:37;39.95;;;20.27;;
27558;SDS011;15002;52.028;5.670;2024-03-08T02:04:03;42.65;;;21.60;;
27558;SDS011;15002;52.028;5.670;2024-03-08T02:06:31;40.47;;;21.65;;
27558;SDS011;15002;52.028;5.670;2024-03-08T02:08:56;34.92;;;19.63;;
27558;SDS011;15002;52.028;5.670;2024-03-08T02:11:22;41.30;;;22.00;;
27558;SDS011;15002;52.028;5.670;2024-03-08T02:13:48;40.85;;;21.33;;
27558;SDS011;15002;52.028;5.670;2024-03-08T02:16:19;38.35;;;20.55;;
27558;SDS011;15002;52.028;5.670;2024-03-08T02:18:46;42.28;;;22.85;;
27558;SDS011;15002;52.028;5.670;2024-03-08T02:21:12;42.38;;;22.42;;
27558;SDS011;15002;52.028;5.670;2024-03-08T02:23:38;41.92;;;21.67;;
27558;SDS011;15002;52.028;5.670;2024-03-08T02:26:05;44.88;;;22.50;;
27558;SDS011;15002;52.028;5.670;2024-03-08T02:28:32;44.75;;;22.83;;
27558;SDS011;15002;52.028;5.670;2024-03-08T02:30:59;43.75;;;22.80;;
27558;SDS011;15002;52.028;5.670;2024-03-08T02:33:25;41.30;;;20.15;;
27558;SDS011;15002;52.028;5.670;2024-03-08T02:35:51;44.28;;;22.10;;
27558;SDS011;15002;52.028;5.670;2024-03-08T02:38:18;42.38;;;21.77;;
27558;SDS011;15002;52.028;5.670;2024-03-08T02:40:45;43.60;;;23.05;;
27558;SDS011;15002;52.028;5.670;2024-03-08T02:43:12;39.33;;;20.35;;
27558;SDS011;15002;52.028;5.670;2024-03-08T02:45:42;46.17;;;23.45;;
27558;SDS011;15002;52.028;5.670;2024-03-08T02:48:09;45.88;;;24.00;;
27558;SDS011;15002;52.028;5.670;2024-03-08T02:50:36;44.95;;;23.10;;
27558;SDS011;15002;52.028;5.670;2024-03-08T02:53:02;42.90;;;23.35;;
27558;SDS011;15002;52.028;5.670;2024-03-08T02:55:28;44.38;;;22.85;;
27558;SDS011;15002;52.028;5.670;2024-03-08T02:57:54;41.83;;;22.55;;
27558;SDS011;15002;52.028;5.670;2024-03-08T03:00:20;40.55;;;21.40;;
27558;SDS011;15002;52.028;5.670;2024-03-08T03:02:51;45.10;;;23.95;;
27558;SDS011;15002;52.028;5.670;2024-03-08T03:05:19;42.25;;;22.08;;
27558;SDS011;15002;52.028;5.670;2024-03-08T03:07:45;45.13;;;22.75;;
27558;SDS011;15002;52.028;5.670;2024-03-08T03:10:11;45.05;;;23.83;;
27558;SDS011;15002;52.028;5.670;2024-03-08T03:12:37;45.58;;;24.15;;
27558;SDS011;15002;52.028;5.670;2024-03-08T03:15:03;43.05;;;23.35;;
27558;SDS011;15002;52.028;5.670;2024-03-08T03:17:29;45.95;;;23.15;;
27558;SDS011;15002;52.028;5.670;2024-03-08T03:19:55;43.85;;;22.75;;
27558;SDS011;15002;52.028;5.670;2024-03-08T03:22:21;43.08;;;22.45;;
27558;SDS011;15002;52.028;5.670;2024-03-08T03:24:46;41.58;;;22.38;;
27558;SDS011;15002;52.028;5.670;2024-03-08T03:27:15;43.22;;;23.80;;
27558;SDS011;15002;52.028;5.670;2024-03-08T03:29:41;44.22;;;22.80;;
27558;SDS011;15002;52.028;5.670;2024-03-08T03:32:13;43.15;;;22.73;;
27558;SDS011;15002;52.028;5.670;2024-03-08T03:34:40;41.55;;;22.75;;
27558;SDS011;15002;52.028;5.670;2024-03-08T03:37:08;39.65;;;21.73;;
27558;SDS011;15002;52.028;5.670;2024-03-08T03:39:37;41.00;;;22.40;;
27558;SDS011;15002;52.028;5.670;2024-03-08T03:42:14;38.58;;;21.98;;
27558;SDS011;15002;52.028;5.670;2024-03-08T03:44:46;42.70;;;23.98;;
27558;SDS011;15002;52.028;5.670;2024-03-08T03:47:13;41.33;;;23.25;;
27558;SDS011;15002;52.028;5.670;2024-03-08T03:49:40;40.92;;;20.80;;
27558;SDS011;15002;52.028;5.670;2024-03-08T03:52:08;44.28;;;22.48;;
27558;SDS011;15002;52.028;5.670;2024-03-08T03:54:35;41.42;;;23.00;;
27558;SDS011;15002;52.028;5.670;2024-03-08T03:57:01;40.47;;;23.38;;
27558;SDS011;15002;52.028;5.670;2024-03-08T03:59:27;39.70;;;22.17;;
27558;SDS011;15002;52.028;5.670;2024-03-08T04:01:54;39.95;;;21.45;;
27558;SDS011;15002;52.028;5.670;2024-03-08T04:04:20;43.20;;;23.40;;
27558;SDS011;15002;52.028;5.670;2024-03-08T04:06:46;42.95;;;22.88;;
27558;SDS011;15002;52.028;5.670;2024-03-08T04:09:11;40.25;;;21.25;;
27558;SDS011;15002;52.028;5.670;2024-03-08T04:11:37;47.17;;;23.90;;
27558;SDS011;15002;52.028;5.670;2024-03-08T04:14:04;39.75;;;23.10;;
27558;SDS011;15002;52.028;5.670;2024-03-08T04:16:30;41.58;;;23.08;;
27558;SDS011;15002;52.028;5.670;2024-03-08T04:18:56;42.65;;;24.40;;
27558;SDS011;15002;52.028;5.670;2024-03-08T04:21:29;38.15;;;22.17;;
27558;SDS011;15002;52.028;5.670;2024-03-08T04:23:55;42.08;;;22.67;;
27558;SDS011;15002;52.028;5.670;2024-03-08T04:26:21;44.28;;;23.55;;
27558;SDS011;15002;52.028;5.670;2024-03-08T04:28:47;38.97;;;23.67;;
27558;SDS011;15002;52.028;5.670;2024-03-08T04:31:13;41.38;;;23.13;;
27558;SDS011;15002;52.028;5.670;2024-03-08T04:33:39;40.20;;;22.42;;
27558;SDS011;15002;52.028;5.670;2024-03-08T04:36:04;45.35;;;25.15;;
27558;SDS011;15002;52.028;5.670;2024-03-08T04:38:30;42.40;;;23.83;;
27558;SDS011;15002;52.028;5.670;2024-03-08T04:40:56;41.08;;;22.83;;
27558;SDS011;15002;52.028;5.670;2024-03-08T04:43:23;44.45;;;24.13;;
27558;SDS011;15002;52.028;5.670;2024-03-08T04:45:51;44.60;;;23.83;;
27558;SDS011;15002;52.028;5.670;2024-03-08T04:48:18;39.70;;;22.48;;
27558;SDS011;15002;52.028;5.670;2024-03-08T04:50:45;41.28;;;23.73;;
27558;SDS011;15002;52.028;5.670;2024-03-08T04:53:11;47.05;;;23.63;;
27558;SDS011;15002;52.028;5.670;2024-03-08T04:55:36;44.05;;;23.35;;
27558;SDS011;15002;52.028;5.670;2024-03-08T04:58:02;41.40;;;22.33;;
27558;SDS011;15002;52.028;5.670;2024-03-08T05:00:30;48.60;;;24.20;;
27558;SDS011;15002;52.028;5.670;2024-03-08T05:02:57;43.80;;;22.83;;
27558;SDS011;15002;52.028;5.670;2024-03-08T05:05:23;42.67;;;22.50;;
27558;SDS011;15002;52.028;5.670;2024-03-08T05:07:50;41.83;;;22.92;;
27558;SDS011;15002;52.028;5.670;2024-03-08T05:10:15;41.05;;;21.00;;
27558;SDS011;15002;52.028;5.670;2024-03-08T05:12:43;41.05;;;23.10;;
27558;SDS011;15002;52.028;5.670;2024-03-08T05:15:09;39.92;;;22.42;;
27558;SDS011;15002;52.028;5.670;2024-03-08T05:17:35;45.67;;;24.83;;
27558;SDS011;15002;52.028;5.670;2024-03-08T05:20:00;40.47;;;22.70;;
27558;SDS011;15002;52.028;5.670;2024-03-08T05:22:26;43.45;;;22.27;;
27558;SDS011;15002;52.028;5.670;2024-03-08T05:24:52;43.88;;;23.50;;
27558;SDS011;15002;52.028;5.670;2024-03-08T05:27:18;42.65;;;23.75;;
27558;SDS011;15002;52.028;5.670;2024-03-08T05:29:44;40.53;;;22.67;;
27558;SDS011;15002;52.028;5.670;2024-03-08T05:32:11;47.53;;;26.00;;
27558;SDS011;15002;52.028;5.670;2024-03-08T05:34:37;41.75;;;23.42;;
27558;SDS011;15002;52.028;5.670;2024-03-08T05:37:03;39.45;;;21.98;;
27558;SDS011;15002;52.028;5.670;2024-03-08T05:39:29;41.95;;;23.23;;
27558;SDS011;15002;52.028;5.670;2024-03-08T05:41:55;43.00;;;24.42;;
27558;SDS011;15002;52.028;5.670;2024-03-08T05:44:21;43.65;;;24.45;;
27558;SDS011;15002;52.028;5.670;2024-03-08T05:46:47;45.85;;;24.17;;
27558;SDS011;15002;52.028;5.670;2024-03-08T05:49:12;45.28;;;24.15;;
27558;SDS011;15002;52.028;5.670;2024-03-08T05:51:38;43.97;;;23.13;;
27558;SDS011;15002;52.028;5.670;2024-03-08T05:54:05;42.90;;;22.27;;
27558;SDS011;15002;52.028;5.670;2024-03-08T05:56:33;42.08;;;22.92;;
27558;SDS011;15002;52.028;5.670;2024-03-08T05:59:00;44.67;;;25.15;;
27558;SDS011;15002;52.028;5.670;2024-03-08T06:01:26;35.70;;;20.30;;
27558;SDS011;15002;52.028;5.670;2024-03-08T06:03:52;44.88;;;24.90;;
27558;SDS011;15002;52.028;5.670;2024-03-08T06:06:20;44.20;;;22.75;;
27558;SDS011;15002;52.028;5.670;2024-03-08T06:08:47;45.92;;;23.60;;
27558;SDS011;15002;52.028;5.670;2024-03-08T06:11:14;46.22;;;24.15;;
27558;SDS011;15002;52.028;5.670;2024-03-08T06:13:42;44.30;;;23.48;;
27558;SDS011;15002;52.028;5.670;2024-03-08T06:16:08;45.78;;;25.45;;
27558;SDS011;15002;52.028;5.670;2024-03-08T06:18:34;41.28;;;23.23;;
27558;SDS011;15002;52.028;5.670;2024-03-08T06:21:03;48.40;;;26.05;;
27558;SDS011;15002;52.028;5.670;2024-03-08T06:23:31;44.40;;;23.00;;
27558;SDS011;15002;52.028;5.670;2024-03-08T06:25:57;43.08;;;23.55;;
27558;SDS011;15002;52.028;5.670;2024-03-08T06:28:22;42.03;;;22.95;;
27558;SDS011;15002;52.028;5.670;2024-03-08T06:30:48;40.95;;;23.80;;
27558;SDS011;15002;52.028;5.670;2024-03-08T06:33:15;41.22;;;22.30;;
27558;SDS011;15002;52.028;5.670;2024-03-08T06:35:41;41.45;;;22.95;;
27558;SDS011;15002;52.028;5.670;2024-03-08T06:38:07;42.97;;;23.73;;
27558;SDS011;15002;52.028;5.670;2024-03-08T06:40:32;42.95;;;23.90;;
27558;SDS011;15002;52.028;5.670;2024-03-08T06:42:58;47.78;;;24.63;;
27558;SDS011;15002;52.028;5.670;2024-03-08T06:45:24;40.13;;;22.80;;
27558;SDS011;15002;52.028;5.670;2024-03-08T06:47:50;43.53;;;23.95;;
27558;SDS011;15002;52.028;5.670;2024-03-08T06:50:16;40.42;;;22.63;;
27558;SDS011;15002;52.028;5.670;2024-03-08T06:52:42;42.97;;;23.95;;
27558;SDS011;15002;52.028;5.670;2024-03-08T06:55:09;42.38;;;24.05;;
27558;SDS011;15002;52.028;5.670;2024-03-08T06:57:41;39.22;;;22.15;;
27558;SDS011;15002;52.028;5.670;2024-03-08T07:00:07;38.20;;;23.27;;
27558;SDS011;15002;52.028;5.670;2024-03-08T07:02:43;44.95;;;23.77;;
27558;SDS011;15002;52.028;5.670;2024-03-08T07:05:11;38.67;;;22.27;;
27558;SDS011;15002;52.028;5.670;2024-03-08T07:07:36;37.17;;;22.20;;
27558;SDS011;15002;52.028;5.670;2024-03-08T07:10:02;36.78;;;22.70;;
27558;SDS011;15002;52.028;5.670;2024-03-08T07:12:29;35.17;;;21.40;;
27558;SDS011;15002;52.028;5.670;2024-03-08T07:14:55;38.30;;;22.13;;
27558;SDS011;15002;52.028;5.670;2024-03-08T07:17:20;41.92;;;21.80;;
27558;SDS011;15002;52.028;5.670;2024-03-08T07:19:47;36.88;;;22.00;;
27558;SDS011;15002;52.028;5.670;2024-03-08T07:22:12;37.35;;;21.60;;
27558;SDS011;15002;52.028;5.670;2024-03-08T07:24:39;35.50;;;21.58;;
27558;SDS011;15002;52.028;5.670;2024-03-08T07:27:24;37.28;;;21.77;;
27558;SDS011;15002;52.028;5.670;2024-03-08T07:29:50;37.22;;;22.27;;
27558;SDS011;15002;52.028;5.670;2024-03-08T07:32:15;38.47;;;23.08;;
27558;SDS011;15002;52.028;5.670;2024-03-08T07:34:46;38.35;;;22.48;;
27558;SDS011;15002;52.028;5.670;2024-03-08T07:37:16;41.28;;;22.60;;
27558;SDS011;15002;52.028;5.670;2024-03-08T07:39:42;38.75;;;22.38;;
27558;SDS011;15002;52.028;5.670;2024-03-08T07:42:08;40.25;;;23.02;;
27558;SDS011;15002;52.028;5.670;2024-03-08T07:44:35;38.95;;;23.42;;
27558;SDS011;15002;52.028;5.670;2024-03-08T07:47:01;38.38;;;22.63;;
27558;SDS011;15002;52.028;5.670;2024-03-08T07:49:28;35.63;;;22.52;;
27558;SDS011;15002;52.028;5.670;2024-03-08T07:51:55;38.67;;;21.60;;
27558;SDS011;15002;52.028;5.670;2024-03-08T07:54:24;37.30;;;21.83;;
27558;SDS011;15002;52.028;5.670;2024-03-08T07:56:51;39.03;;;22.80;;
27558;SDS011;15002;52.028;5.670;2024-03-08T07:59:17;37.25;;;20.60;;
27558;SDS011;15002;52.028;5.670;2024-03-08T08:01:43;41.33;;;22.75;;
27558;SDS011;15002;52.028;5.670;2024-03-08T08:04:09;36.30;;;22.50;;
27558;SDS011;15002;52.028;5.670;2024-03-08T08:06:38;36.78;;;21.92;;
27558;SDS011;15002;52.028;5.670;2024-03-08T08:09:06;35.38;;;22.23;;
27558;SDS011;15002;52.028;5.670;2024-03-08T08:11:47;38.42;;;23.05;;
27558;SDS011;15002;52.028;5.670;2024-03-08T08:14:13;34.55;;;21.85;;
27558;SDS011;15002;52.028;5.670;2024-03-08T08:16:39;41.58;;;23.48;;
27558;SDS011;15002;52.028;5.670;2024-03-08T08:19:12;39.70;;;22.67;;
27558;SDS011;15002;52.028;5.670;2024-03-08T08:21:38;37.70;;;22.38;;
27558;SDS011;15002;52.028;5.670;2024-03-08T08:24:04;40.42;;;23.90;;
27558;SDS011;15002;52.028;5.670;2024-03-08T08:26:30;36.38;;;22.38;;
27558;SDS011;15002;52.028;5.670;2024-03-08T08:28:55;40.28;;;22.52;;
27558;SDS011;15002;52.028;5.670;2024-03-08T08:31:21;38.00;;;22.13;;
27558;SDS011;15002;52.028;5.670;2024-03-08T08:33:47;36.08;;;22.20;;
27558;SDS011;15002;52.028;5.670;2024-03-08T08:36:17;36.10;;;21.87;;
27558;SDS011;15002;52.028;5.670;2024-03-08T08:38:43;38.60;;;21.17;;
27558;SDS011;15002;52.028;5.670;2024-03-08T08:41:09;37.92;;;22.75;;
27558;SDS011;15002;52.028;5.670;2024-03-08T08:43:36;37.03;;;23.15;;
27558;SDS011;15002;52.028;5.670;2024-03-08T08:46:02;35.90;;;22.27;;
27558;SDS011;15002;52.028;5.670;2024-03-08T08:48:28;39.00;;;22.90;;
27558;SDS011;15002;52.028;5.670;2024-03-08T08:50:54;35.20;;;21.55;;
27558;SDS011;15002;52.028;5.670;2024-03-08T08:53:20;39.33;;;22.67;;
27558;SDS011;15002;52.028;5.670;2024-03-08T08:55:47;34.58;;;21.38;;
27558;SDS011;15002;52.028;5.670;2024-03-08T08:58:12;38.13;;;20.70;;
27558;SDS011;15002;52.028;5.670;2024-03-08T09:00:39;34.00;;;20.88;;
27558;SDS011;15002;52.028;5.670;2024-03-08T09:03:05;34.75;;;20.60;;
27558;SDS011;15002;52.028;5.670;2024-03-08T09:05:32;37.63;;;21.83;;
27558;SDS011;15002;52.028;5.670;2024-03-08T09:07:58;37.80;;;21.98;;
27558;SDS011;15002;52.028;5.670;2024-03-08T09:10:25;39.17;;;22.67;;
27558;SDS011;15002;52.028;5.670;2024-03-08T09:12:50;37.92;;;21.60;;
27558;SDS011;15002;52.028;5.670;2024-03-08T09:15:16;36.45;;;21.45;;
27558;SDS011;15002;52.028;5.670;2024-03-08T09:17:42;35.20;;;20.70;;
27558;SDS011;15002;52.028;5.670;2024-03-08T09:20:09;32.15;;;19.73;;
27558;SDS011;15002;52.028;5.670;2024-03-08T09:22:39;33.40;;;19.33;;
27558;SDS011;15002;52.028;5.670;2024-03-08T09:25:05;33.45;;;20.67;;
27558;SDS011;15002;52.028;5.670;2024-03-08T09:27:32;38.03;;;21.63;;
27558;SDS011;15002;52.028;5.670;2024-03-08T09:29:59;33.88;;;20.42;;
27558;SDS011;15002;52.028;5.670;2024-03-08T09:32:24;31.95;;;20.08;;
27558;SDS011;15002;52.028;5.670;2024-03-08T09:34:51;35.15;;;19.92;;
27558;SDS011;15002;52.028;5.670;2024-03-08T09:37:17;33.10;;;20.60;;
27558;SDS011;15002;52.028;5.670;2024-03-08T09:39:43;33.45;;;20.63;;
27558;SDS011;15002;52.028;5.670;2024-03-08T09:42:09;33.88;;;20.15;;
27558;SDS011;15002;52.028;5.670;2024-03-08T09:44:39;31.97;;;20.00;;
27558;SDS011;15002;52.028;5.670;2024-03-08T09:47:10;29.55;;;19.35;;
27558;SDS011;15002;52.028;5.670;2024-03-08T09:49:39;34.03;;;18.88;;
27558;SDS011;15002;52.028;5.670;2024-03-08T09:52:06;30.33;;;20.42;;
27558;SDS011;15002;52.028;5.670;2024-03-08T09:54:32;32.83;;;20.80;;
27558;SDS011;15002;52.028;5.670;2024-03-08T09:56:58;30.73;;;20.20;;
27558;SDS011;15002;52.028;5.670;2024-03-08T09:59:24;33.10;;;21.45;;
27558;SDS011;15002;52.028;5.670;2024-03-08T10:01:52;30.98;;;20.05;;
27558;SDS011;15002;52.028;5.670;2024-03-08T10:04:21;35.47;;;19.98;;
27558;SDS011;15002;52.028;5.670;2024-03-08T10:06:47;30.52;;;19.98;;
27558;SDS011;15002;52.028;5.670;2024-03-08T10:09:13;30.75;;;19.67;;
27558;SDS011;15002;52.028;5.670;2024-03-08T10:11:40;32.08;;;20.17;;
27558;SDS011;15002;52.028;5.670;2024-03-08T10:14:07;31.58;;;19.60;;
27558;SDS011;15002;52.028;5.670;2024-03-08T10:16:35;30.65;;;19.83;;
27558;SDS011;15002;52.028;5.670;2024-03-08T10:19:04;29.90;;;18.65;;
27558;SDS011;15002;52.028;5.670;2024-03-08T10:21:31;30.33;;;19.02;;
27558;SDS011;15002;52.028;5.670;2024-03-08T10:23:58;33.05;;;19.77;;
27558;SDS011;15002;52.028;5.670;2024-03-08T10:26:24;30.00;;;18.75;;
27558;SDS011;15002;52.028;5.670;2024-03-08T10:28:53;31.50;;;20.33;;
27558;SDS011;15002;52.028;5.670;2024-03-08T10:31:19;31.30;;;19.50;;
27558;SDS011;15002;52.028;5.670;2024-03-08T10:33:45;35.55;;;18.63;;
27558;SDS011;15002;52.028;5.670;2024-03-08T10:36:12;31.27;;;19.33;;
27558;SDS011;15002;52.028;5.670;2024-03-08T10:38:40;29.50;;;18.17;;
27558;SDS011;15002;52.028;5.670;2024-03-08T10:41:08;31.10;;;18.13;;
27558;SDS011;15002;52.028;5.670;2024-03-08T10:46:30;30.38;;;19.45;;
27558;SDS011;15002;52.028;5.670;2024-03-08T10:49:16;28.60;;;18.15;;
27558;SDS011;15002;52.028;5.670;2024-03-08T10:51:42;28.90;;;18.10;;
27558;SDS011;15002;52.028;5.670;2024-03-08T10:54:09;27.55;;;18.33;;
27558;SDS011;15002;52.028;5.670;2024-03-08T10:56:36;26.13;;;17.45;;
27558;SDS011;15002;52.028;5.670;2024-03-08T10:59:05;27.77;;;17.65;;
27558;SDS011;15002;52.028;5.670;2024-03-08T11:01:33;28.45;;;18.05;;
27558;SDS011;15002;52.028;5.670;2024-03-08T11:03:59;24.17;;;16.95;;
27558;SDS011;15002;52.028;5.670;2024-03-08T11:06:30;27.10;;;17.20;;
27558;SDS011;15002;52.028;5.670;2024-03-08T11:14:54;27.77;;;17.20;;
27558;SDS011;15002;52.028;5.670;2024-03-08T11:19:55;24.63;;;15.75;;
27558;SDS011;15002;52.028;5.670;2024-03-08T11:22:28;22.08;;;15.27;;
27558;SDS011;15002;52.028;5.670;2024-03-08T11:25:05;26.38;;;16.55;;
27558;SDS011;15002;52.028;5.670;2024-03-08T11:27:37;27.13;;;15.82;;
27558;SDS011;15002;52.028;5.670;2024-03-08T11:30:04;25.65;;;15.43;;
27558;SDS011;15002;52.028;5.670;2024-03-08T11:32:37;23.15;;;15.15;;
27558;SDS011;15002;52.028;5.670;2024-03-08T11:35:07;24.08;;;16.20;;
27558;SDS011;15002;52.028;5.670;2024-03-08T11:37:43;29.88;;;16.65;;
27558;SDS011;15002;52.028;5.670;2024-03-08T11:40:13;22.75;;;15.60;;
27558;SDS011;15002;52.028;5.670;2024-03-08T11:45:12;23.38;;;14.90;;
27558;SDS011;15002;52.028;5.670;2024-03-08T11:47:39;24.05;;;15.32;;
27558;SDS011;15002;52.028;5.670;2024-03-08T11:50:07;22.40;;;14.57;;
27558;SDS011;15002;52.028;5.670;2024-03-08T11:52:36;23.20;;;13.65;;
27558;SDS011;15002;52.028;5.670;2024-03-08T11:55:02;23.48;;;13.68;;
27558;SDS011;15002;52.028;5.670;2024-03-08T11:57:30;24.50;;;14.70;;
27558;SDS011;15002;52.028;5.670;2024-03-08T11:59:57;23.25;;;14.00;;
27558;SDS011;15002;52.028;5.670;2024-03-08T12:02:31;23.95;;;14.88;;
27558;SDS011;15002;52.028;5.670;2024-03-08T12:04:58;20.38;;;14.23;;
27558;SDS011;15002;52.028;5.670;2024-03-08T12:07:25;26.42;;;15.40;;
27558;SDS011;15002;52.028;5.670;2024-03-08T12:10:13;26.88;;;16.00;;
27558;SDS011;15002;52.028;5.670;2024-03-08T12:12:44;22.15;;;14.27;;
27558;SDS011;15002;52.028;5.670;2024-03-08T12:15:15;25.92;;;15.15;;
27558;SDS011;15002;52.028;5.670;2024-03-08T12:17:43;24.00;;;15.55;;
27558;SDS011;15002;52.028;5.670;2024-03-08T12:20:19;24.80;;;15.75;;
27558;SDS011;15002;52.028;5.670;2024-03-08T12:22:50;24.00;;;15.80;;
27558;SDS011;15002;52.028;5.670;2024-03-08T12:25:18;23.85;;;14.38;;
27558;SDS011;15002;52.028;5.670;2024-03-08T12:27:45;25.27;;;15.98;;
27558;SDS011;15002;52.028;5.670;2024-03-08T12:30:21;22.95;;;15.57;;
27558;SDS011;15002;52.028;5.670;2024-03-08T12:32:50;28.08;;;15.73;;
27558;SDS011;15002;52.028;5.670;2024-03-08T12:35:24;23.17;;;14.70;;
27558;SDS011;15002;52.028;5.670;2024-03-08T12:37:52;22.27;;;15.52;;
27558;SDS011;15002;52.028;5.670;2024-03-08T12:40:19;25.08;;;16.30;;
27558;SDS011;15002;52.028;5.670;2024-03-08T12:42:51;23.67;;;16.15;;
27558;SDS011;15002;52.028;5.670;2024-03-08T12:45:17;29.55;;;16.17;;
27558;SDS011;15002;52.028;5.670;2024-03-08T12:47:43;23.73;;;15.80;;
27558;SDS011;15002;52.028;5.670;2024-03-08T12:50:09;25.88;;;17.23;;
27558;SDS011;15002;52.028;5.670;2024-03-08T12:52:35;22.98;;;15.93;;
27558;SDS011;15002;52.028;5.670;2024-03-08T12:55:01;23.30;;;15.02;;
27558;SDS011;15002;52.028;5.670;2024-03-08T12:57:27;25.02;;;16.33;;
27558;SDS011;15002;52.028;5.670;2024-03-08T12:59:54;26.55;;;16.33;;
27558;SDS011;15002;52.028;5.670;2024-03-08T13:02:20;30.05;;;16.50;;
27558;SDS011;15002;52.028;5.670;2024-03-08T13:04:45;25.05;;;16.42;;
27558;SDS011;15002;52.028;5.670;2024-03-08T13:07:20;29.60;;;15.25;;
27558;SDS011;15002;52.028;5.670;2024-03-08T13:09:46;24.75;;;15.45;;
27558;SDS011;15002;52.028;5.670;2024-03-08T13:12:12;24.27;;;15.15;;
27558;SDS011;15002;52.028;5.670;2024-03-08T13:14:40;28.98;;;17.20;;
27558;SDS011;15002;52.028;5.670;2024-03-08T13:17:06;25.88;;;17.17;;
27558;SDS011;15002;52.028;5.670;2024-03-08T13:19:36;25.27;;;16.02;;
27558;SDS011;15002;52.028;5.670;2024-03-08T13:22:03;27.13;;;16.15;;
27558;SDS011;15002;52.028;5.670;2024-03-08T13:24:29;26.98;;;16.92;;
27558;SDS011;15002;52.028;5.670;2024-03-08T13:26:55;28.88;;;16.33;;
27558;SDS011;15002;52.028;5.670;2024-03-08T13:29:21;25.90;;;16.30;;
27558;SDS011;15002;52.028;5.670;2024-03-08T13:31:48;27.70;;;16.25;;
27558;SDS011;15002;52.028;5.670;2024-03-08T13:34:17;29.00;;;17.80;;
27558;SDS011;15002;52.028;5.670;2024-03-08T13:36:43;26.73;;;17.52;;
27558;SDS011;15002;52.028;5.670;2024-03-08T13:39:10;24.90;;;16.63;;
27558;SDS011;15002;52.028;5.670;2024-03-08T13:41:40;28.40;;;16.35;;
27558;SDS011;15002;52.028;5.670;2024-03-08T13:44:09;25.13;;;16.60;;
27558;SDS011;15002;52.028;5.670;2024-03-08T13:46:35;29.15;;;18.00;;
27558;SDS011;15002;52.028;5.670;2024-03-08T13:49:05;26.13;;;16.00;;
27558;SDS011;15002;52.028;5.670;2024-03-08T13:51:33;30.52;;;17.48;;
27558;SDS011;15002;52.028;5.670;2024-03-08T13:53:59;26.65;;;17.10;;
27558;SDS011;15002;52.028;5.670;2024-03-08T13:56:31;29.65;;;17.70;;
27558;SDS011;15002;52.028;5.670;2024-03-08T13:58:57;29.15;;;16.85;;
27558;SDS011;15002;52.028;5.670;2024-03-08T14:01:22;27.23;;;17.45;;
27558;SDS011;15002;52.028;5.670;2024-03-08T14:03:49;26.38;;;16.90;;
27558;SDS011;15002;52.028;5.670;2024-03-08T14:06:15;25.70;;;17.25;;
27558;SDS011;15002;52.028;5.670;2024-03-08T14:08:41;38.42;;;18.00;;
27558;SDS011;15002;52.028;5.670;2024-03-08T14:11:07;27.42;;;17.58;;
27558;SDS011;15002;52.028;5.670;2024-03-08T14:13:40;28.20;;;18.00;;
27558;SDS011;15002;52.028;5.670;2024-03-08T14:16:10;26.88;;;18.23;;
27558;SDS011;15002;52.028;5.670;2024-03-08T14:18:36;24.00;;;16.55;;
27558;SDS011;15002;52.028;5.670;2024-03-08T14:21:02;28.67;;;17.85;;
27558;SDS011;15002;52.028;5.670;2024-03-08T14:23:29;26.45;;;16.92;;
27558;SDS011;15002;52.028;5.670;2024-03-08T14:25:55;27.13;;;17.92;;
27558;SDS011;15002;52.028;5.670;2024-03-08T14:28:20;26.17;;;17.60;;
27558;SDS011;15002;52.028;5.670;2024-03-08T14:30:48;26.67;;;16.75;;
27558;SDS011;15002;52.028;5.670;2024-03-08T14:33:14;26.95;;;16.58;;
27558;SDS011;15002;52.028;5.670;2024-03-08T14:35:40;29.85;;;17.35;;